Green Fast — ZDHA9 — position and weather

sailwx.info

Track history (hours):
 
Tides and Currents Weather Stations Pressure Air Temp Water Temp Dewpoint Dewpoint Depression Visibility Wind Speed Wind Dir Waves Ship Positions

Green Fast

Last reported at 2016-Jun-20 11:06 UTC. Time now 2016-Jun-24 22:23 UTC.
Position N 45°12' E 030°04'.

Length 118 m; draft 7.3 m.

Type: Cargo ship. MMSI: 236294000.

Date/timePositionNaut miles runAvg speedWind from/ knotsBaromVisibWave heightAir tempDewpointWater temp
2016-Jun-20 11:06N 45°12' E 030°04'910.8
2016-Jun-20 10:15N 45°20' E 030°10'710.8
2016-Jun-20 09:33N 45°27' E 030°16'1210.4
2016-Jun-20 08:25N 45°37' E 030°25'910.5
2016-Jun-20 07:33N 45°44' E 030°32'1110.9
2016-Jun-20 06:33N 45°54' E 030°40'1110.8
2016-Jun-20 05:33N 46°03' E 030°47'1211.6
2016-Jun-20 04:33N 46°15' E 030°46'7 6.6
2016-Jun-20 03:33N 46°20' E 030°40'0 0.1
2016-Jun-20 02:33N 46°20' E 030°40'0 0.0
2016-Jun-20 01:33N 46°20' E 030°40'0 0.0
2016-Jun-20 00:33N 46°20' E 030°40'0 0.0
2016-Jun-19 23:33N 46°20' E 030°40'0 0.0
2016-Jun-19 22:33N 46°20' E 030°40'0 0.0
2016-Jun-19 21:33N 46°20' E 030°40'0 0.0
2016-Jun-19 20:33N 46°20' E 030°40'0 0.0
2016-Jun-19 19:33N 46°20' E 030°40'0 0.0
2016-Jun-19 18:33N 46°20' E 030°40'0 0.0
2016-Jun-19 17:33N 46°20' E 030°40'1 1.2
2016-Jun-19 16:33N 46°19' E 030°41'9 9.4
2016-Jun-19 15:33N 46°10' E 030°46'1111.0
2016-Jun-19 14:33N 45°59' E 030°46'1211.5
2016-Jun-19 13:33N 45°49' E 030°37'1211.8
2016-Jun-19 12:33N 45°40' E 030°28'  
2016-Jun-13 16:15N 45°58' E 030°45'7 9.9
2016-Jun-13 15:33N 46°05' E 030°47'1010.5
2016-Jun-13 14:33N 46°16' E 030°46'6 5.7
2016-Jun-13 13:33N 46°20' E 030°40'0 0.0
2016-Jun-13 12:34N 46°20' E 030°40'0 0.0
2016-Jun-13 11:33N 46°20' E 030°40'0 0.0
2016-Jun-13 10:34N 46°20' E 030°40'0 0.0
2016-Jun-13 09:34N 46°20' E 030°40'0 0.0
2016-Jun-13 08:33N 46°20' E 030°40'0 0.0
2016-Jun-13 07:34N 46°20' E 030°40'0 0.0
2016-Jun-13 06:33N 46°20' E 030°40'0 0.0
2016-Jun-13 05:33N 46°20' E 030°40'0 0.0
2016-Jun-13 04:33N 46°20' E 030°40'1 0.6
2016-Jun-13 03:34N 46°19' E 030°40'8 8.1
2016-Jun-13 02:34N 46°18' E 030°52'10 9.7
2016-Jun-13 01:33N 46°12' E 031°03'1010.4
2016-Jun-13 00:33N 46°05' E 031°14'10710.3
2016-Jun-12 14:11N 44°45' E 032°55'710.4
2016-Jun-12 13:33N 44°40' E 033°01'1110.6
2016-Jun-12 12:33N 44°32' E 033°11'1110.8
2016-Jun-12 11:33N 44°24' E 033°21'  
Track history (hours):
 
Tides and Currents Weather Stations Pressure Air Temp Water Temp Dewpoint Dewpoint Depression Visibility Wind Speed Wind Dir Waves Ship Positions

Green Fast

Last reported at 2016-Jun-20 11:06 UTC. Time now 2016-Jun-24 22:23 UTC.
Position N 45°12' E 030°04'.

Length 118 m; draft 7.3 m.

Type: Cargo ship. MMSI: 236294000.

Date/timePositionNaut miles runAvg speedWind from/ knotsBaromVisibWave heightAir tempDewpointWater temp
2016-Jun-20 11:06N 45°12' E 030°04'910.8
2016-Jun-20 10:15N 45°20' E 030°10'710.8
2016-Jun-20 09:33N 45°27' E 030°16'1210.4
2016-Jun-20 08:25N 45°37' E 030°25'910.5
2016-Jun-20 07:33N 45°44' E 030°32'1110.9
2016-Jun-20 06:33N 45°54' E 030°40'1110.8
2016-Jun-20 05:33N 46°03' E 030°47'1211.6
2016-Jun-20 04:33N 46°15' E 030°46'7 6.6
2016-Jun-20 03:33N 46°20' E 030°40'0 0.1
2016-Jun-20 02:33N 46°20' E 030°40'0 0.0
2016-Jun-20 01:33N 46°20' E 030°40'0 0.0
2016-Jun-20 00:33N 46°20' E 030°40'0 0.0
2016-Jun-19 23:33N 46°20' E 030°40'0 0.0
2016-Jun-19 22:33N 46°20' E 030°40'0 0.0
2016-Jun-19 21:33N 46°20' E 030°40'0 0.0
2016-Jun-19 20:33N 46°20' E 030°40'0 0.0
2016-Jun-19 19:33N 46°20' E 030°40'0 0.0
2016-Jun-19 18:33N 46°20' E 030°40'0 0.0
2016-Jun-19 17:33N 46°20' E 030°40'1 1.2
2016-Jun-19 16:33N 46°19' E 030°41'9 9.4
2016-Jun-19 15:33N 46°10' E 030°46'1111.0
2016-Jun-19 14:33N 45°59' E 030°46'1211.5
2016-Jun-19 13:33N 45°49' E 030°37'1211.8
2016-Jun-19 12:33N 45°40' E 030°28'  
2016-Jun-13 16:15N 45°58' E 030°45'7 9.9
2016-Jun-13 15:33N 46°05' E 030°47'1010.5
2016-Jun-13 14:33N 46°16' E 030°46'6 5.7
2016-Jun-13 13:33N 46°20' E 030°40'0 0.0
2016-Jun-13 12:34N 46°20' E 030°40'0 0.0
2016-Jun-13 11:33N 46°20' E 030°40'0 0.0
2016-Jun-13 10:34N 46°20' E 030°40'0 0.0
2016-Jun-13 09:34N 46°20' E 030°40'0 0.0
2016-Jun-13 08:33N 46°20' E 030°40'0 0.0
2016-Jun-13 07:34N 46°20' E 030°40'0 0.0
2016-Jun-13 06:33N 46°20' E 030°40'0 0.0
2016-Jun-13 05:33N 46°20' E 030°40'0 0.0
2016-Jun-13 04:33N 46°20' E 030°40'1 0.6
2016-Jun-13 03:34N 46°19' E 030°40'8 8.1
2016-Jun-13 02:34N 46°18' E 030°52'10 9.7
2016-Jun-13 01:33N 46°12' E 031°03'1010.4
2016-Jun-13 00:33N 46°05' E 031°14'10710.3
2016-Jun-12 14:11N 44°45' E 032°55'710.4
2016-Jun-12 13:33N 44°40' E 033°01'1110.6
2016-Jun-12 12:33N 44°32' E 033°11'1110.8
2016-Jun-12 11:33N 44°24' E 033°21'  

Dump ship's entire track history